x

Mid Gulf - 180 Nm South Of Southwest Pass, La (42001) Wave Buoy

11:50am - Sun 26th Feb 2017 All times are UTC.

  • Sig Wave height 4.6ft
  • Swell Direction
  • Peak Period 7s
  • Average Period 5s
  • Wind
    20mph, 25mph gusts
  • Sea Temp 74°f
  • Air Temp 73°f
  • Sea Pressure 1016.6mb

More Historic Weather Station data

Upgrade to MSW Pro to gain access to the past 30 days of data for over 8000 Wavebouys and Weather Stations around the globe.

Join Pro

Comparision Forecast

View Surf forecast
   
Sun 02/26 11:50am 4.5ft 7s 5s 20 25 mph 1016.6mb 74f 73f
10:50am 5ft 7s 5s 18 22 mph 1016.1mb 74f 72f
9:50am 5ft 6s 5s 18 22 mph 1016mb 74f 72f
8:50am 5ft 7s 5s 18 22 mph 1016.1mb 75f 72f
7:50am 4.5ft 7s 5s 18 20 mph 1016.3mb 75f 72f
6:50am 5ft 7s 5s 18 22 mph 1016.5mb 75f 72f
5:50am 5ft 7s 5s 20 22 mph 1016.6mb 75f 72f
4:50am 5ft 7s 5s 20 22 mph 1016.8mb 75f 72f
3:50am 5ft 6s 5s 18 22 mph 1016.8mb 75f 72f
2:50am 4.5ft 5s 5s 18 22 mph 1016.6mb 75f 73f
1:50am 3.5ft 5s 4s 20 22 mph 1015.9mb 75f 73f
12:50am 2.5ft 4s 4s 18 22 mph 1015.3mb 75f 73f
Sat 02/25 11:50pm 2ft 4s 4s 18 20 mph 1014.8mb 75f 74f
10:50pm 1.6ft 4s 4s 13 16 mph 1014.6mb 75f 75f
9:50pm 1.6ft 4s 4s 13 16 mph 1014.3mb 76f 75f
8:50pm 1.6ft 5s 4s 11 16 mph 1014.3mb 76f 74f
7:50pm 1.6ft 3s 4s 11 13 mph 1014.1mb 76f 74f
6:50pm 1.6ft 4s 4s 11 13 mph 1014.2mb 76f 74f
5:50pm 1.6ft 3s 4s 11 13 mph 1014.7mb 76f 74f
4:50pm 2ft 6s 4s 11 16 mph 1015.1mb 76f 74f
3:50pm 2ft 6s 4s 13 16 mph 1015mb 76f 74f
2:50pm 2ft 5s 4s 16 18 mph 1014.6mb 75f 73f
1:50pm 2ft 6s 4s 16 18 mph 1014.1mb 76f 73f
12:50pm 2ft 5s 4s 11 13 mph 1013.3mb 76f 73f
11:50am 2ft 5s 4s 13
mph
1012.6mb 75f 73f
10:50am 2ft 6s 4s 9
mph
1012mb 75f 73f
9:50am 2ft 6s 4s 4
mph
1011.2mb 75f 73f
8:50am 2.5ft 6s 4s 2 4 mph 1010.9mb 75f 73f
7:50am 2.5ft 6s 5s 4 7 mph 1010.9mb 75f 74f
6:50am 2.5ft 6s 5s 4 7 mph 1011.1mb 75f 74f
5:50am 2.5ft 5s 5s 7
mph
1011.2mb 75f 74f
4:50am 3ft 6s 5s 7 9 mph 1011mb 75f 74f
3:50am 2.5ft 6s 5s 4 7 mph 1010.9mb 74f 74f
2:50am 3ft 4s 5s 2 4 mph 1011mb 74f 74f
1:50am 3ft 6s 5s 2
mph
1010.3mb 74f 74f
12:50am 3ft 5s 5s 2
mph
1010mb 74f 74f
Fri 02/24 11:50pm 3ft 6s 4s 2
mph
1010mb 74f 74f
10:50pm 3ft 5s 4s 4 7 mph 1009.2mb 75f 75f
9:50pm 3ft 6s 4s 9 11 mph 1008.8mb 75f 75f
8:50pm 3ft 5s 4s 9
mph
1008.9mb 75f 74f
7:50pm 3ft 4s 4s 13 16 mph 1008.7mb 75f 74f
6:50pm 3ft 4s 4s 13 16 mph 1009.5mb 74f 74f
5:50pm 3ft 4s 4s 11 16 mph 1010.2mb 74f 74f
4:50pm 3ft 4s 4s 16 18 mph 1010.5mb 74f 74f
3:50pm 2.5ft 4s 4s 18 22 mph 1009.7mb 75f 74f
2:50pm 2.5ft 4s 4s 20 22 mph 1009.4mb 75f 74f
1:50pm 2.5ft 5s 4s 18 22 mph 1008.8mb 75f 73f
12:50pm 2.5ft 6s 4s 16 18 mph 1008.7mb 75f 73f
11:50am 2ft 6s 4s 16 18 mph 1008.4mb 75f 73f
10:50am 2.5ft 6s 4s 11 16 mph 1008.5mb 75f 73f
9:50am 2.5ft 6s 4s 13 18 mph 1008.6mb 75f 73f
8:50am 2.5ft 6s 4s 13 18 mph 1008.4mb 75f 73f
7:50am 2.5ft 6s 5s 11 13 mph 1009.2mb 75f 72f
6:50am 2.5ft 6s 5s 11 13 mph 1009.5mb 75f 73f
5:50am 2.5ft 6s 5s 9 11 mph 1009.8mb 76f 73f
4:50am 2.5ft 6s 5s 7 9 mph 1010mb 75f 73f
3:50am 2.5ft 6s 5s 9
mph
1010.1mb 75f 73f
2:50am 2.5ft 6s 5s 7
mph
1010mb 75f 73f
1:50am 2.5ft 6s 5s 4 7 mph 1009.4mb 75f 73f
12:50am 3ft 6s 5s 2 4 mph 1008.8mb 75f 72f
Thu 02/23 11:50pm 3.5ft 7s 5s 2 4 mph 1008.5mb 76f 72f
10:50pm 3ft 6s 5s 2
mph
1008.5mb 76f 73f
9:50pm 3.5ft 5s 5s 2 4 mph 1008.2mb 76f 73f
8:50pm 3.5ft 7s 5s 4
mph
1008.3mb 76f 73f
7:50pm 3.5ft 6s 5s 4 7 mph 1008.5mb 76f 73f
6:50pm 3.5ft 6s 5s 4 7 mph 1009.2mb 76f 72f
5:50pm 3.5ft 6s 5s 4 7 mph 1009.9mb 76f 72f
4:50pm 4ft 6s 5s 7 11 mph 1010.3mb 75f 72f
3:50pm 3.5ft 6s 5s 9 11 mph 1010.4mb 75f 72f
2:50pm 4ft 6s 5s 9 13 mph 1010.1mb 75f 71f
1:50pm 4ft 6s 5s 9 11 mph 1009.7mb 75f 71f
12:50pm 3.5ft 6s 5s 9 11 mph 1009mb 75f 71f
11:50am 3.5ft 6s 5s 11 13 mph 1008.4mb 75f 70f
10:50am 4ft 6s 5s 11 16 mph 1008.4mb 75f 70f
9:50am 4.5ft 6s 5s 13 18 mph 1008.5mb 75f 70f
8:50am 4.5ft 6s 5s 13 18 mph 1008.3mb 75f 70f
7:50am 4.5ft 6s 5s 13 16 mph 1008.7mb 75f 70f
6:50am 4.5ft 7s 5s 13 16 mph 1009.1mb 75f 70f
5:50am 4.5ft 6s 5s 13 18 mph 1009.4mb 75f 70f
4:50am 5ft 6s 5s 13 18 mph 1009.8mb 76f 70f
3:50am 5ft 6s 5s 16 20 mph 1010mb 76f 70f
2:50am 5ft 6s 5s 18 22 mph 1009.9mb 76f 71f
1:50am 5ft 7s 5s 18 20 mph 1009.4mb 76f 71f
12:50am 5ft 6s 5s 18 22 mph 1008.9mb 76f 71f
Wed 02/22 11:50pm 5ft 6s 5s 18 22 mph 1008.6mb 76f 71f
10:50pm 5ft 8s 5s 16 20 mph 1008.2mb 76f 71f
9:50pm 5ft 8s 5s 16 18 mph 1008mb 76f 71f
8:50pm 5ft 8s 5s 16 20 mph 1008.2mb 75f 72f
7:50pm 6ft 8s 6s 18 20 mph 1008.7mb 75f 72f
6:50pm 5ft 8s 5s 18 20 mph 1009.2mb 75f 72f
5:50pm 5.5ft 7s 5s 18 22 mph 1009.7mb 75f 71f
4:50pm 5.5ft 8s 5s 18 20 mph 1010.5mb 75f 71f
3:50pm 6.5ft 7s 6s 18 22 mph 1010.4mb 75f 71f
2:50pm 6.5ft 7s 5s 20 25 mph 1010.2mb 75f 71f
1:50pm 6ft 8s 5s 22 27 mph 1010mb 75f 71f